Time;durP1;ratioP1;P1;durP2;ratioP2;P2;SDS_P1;SDS_P2;PMS_P1;PMS_P2;Temp;Humidity;BMP_temperature;BMP_pressure;BME280_temperature;BME280_humidity;BME280_pressure;Samples;Min_cycle;Max_cycle;Signal;HPM_P1;HPM_P2
2021/07/11 00:02:05;;;;;;;7.03;6.17;;;;;;;16.76;99.21;100428.53;5071088;28;20688;-73
2021/07/11 00:04:30;;;;;;;6.17;5.70;;;;;;;16.79;99.30;100414.84;5070682;28;20213;-74
2021/07/11 00:06:55;;;;;;;7.30;6.70;;;;;;;16.56;99.40;100416.53;5070985;28;20171;-74
2021/07/11 00:09:21;;;;;;;7.53;7.03;;;;;;;15.91;100.00;100413.91;5071120;28;20682;-74
2021/07/11 00:11:46;;;;;;;7.17;6.67;;;;;;;16.17;100.00;100418.19;5070770;28;20174;-73
2021/07/11 00:14:11;;;;;;;7.43;6.83;;;;;;;16.27;100.00;100409.44;5070906;28;20178;-74
2021/07/11 00:16:37;;;;;;;7.87;7.13;;;;;;;16.36;100.00;100415.59;5070793;28;20227;-74
2021/07/11 00:19:02;;;;;;;7.67;7.07;;;;;;;16.34;100.00;100412.38;5069978;28;20171;-74
2021/07/11 00:21:28;;;;;;;7.03;6.47;;;;;;;16.51;100.00;100406.56;5070727;28;20231;-73
2021/07/11 00:23:53;;;;;;;7.83;7.20;;;;;;;16.60;100.00;100406.41;5070805;28;20201;-73
2021/07/11 00:26:19;;;;;;;9.13;7.23;;;;;;;16.64;99.73;100410.06;5071027;28;20447;-74
2021/07/11 00:28:45;;;;;;;7.43;6.53;;;;;;;16.65;99.69;100406.97;5070862;28;20174;-74
2021/07/11 00:31:11;;;;;;;7.20;6.70;;;;;;;16.65;99.92;100400.63;5070919;28;20170;-73
2021/07/11 00:33:36;;;;;;;7.10;6.50;;;;;;;16.72;99.40;100403.59;5070811;28;20666;-74
2021/07/11 00:36:02;;;;;;;7.07;6.47;;;;;;;16.75;98.59;100408.41;5070653;28;20178;-74
2021/07/11 00:38:27;;;;;;;5.77;5.37;;;;;;;16.72;97.51;100405.56;5070714;28;20182;-73
2021/07/11 00:40:53;;;;;;;6.40;5.90;;;;;;;16.52;97.72;100408.19;5070443;28;20572;-73
2021/07/11 00:43:19;;;;;;;6.73;6.23;;;;;;;16.47;98.35;100413.94;5069177;28;20649;-74
2021/07/11 00:45:44;;;;;;;8.07;6.17;;;;;;;16.32;99.84;100414.69;5070621;28;20217;-74
2021/07/11 00:48:10;;;;;;;6.07;5.67;;;;;;;16.41;99.99;100418.09;5070700;28;20228;-74
2021/07/11 00:50:35;;;;;;;6.83;6.23;;;;;;;16.34;98.65;100415.94;5070472;28;20180;-74
2021/07/11 00:53:01;;;;;;;6.17;5.67;;;;;;;16.29;98.54;100409.88;5070414;28;20175;-74
2021/07/11 00:55:27;;;;;;;6.43;5.93;;;;;;;16.28;98.93;100416.53;5070436;28;20209;-73
2021/07/11 00:57:53;;;;;;;7.27;6.27;;;;;;;16.29;99.40;100418.16;5070414;28;20198;-73
2021/07/11 01:00:19;;;;;;;6.80;6.00;;;;;;;16.33;99.68;100421.78;5070400;28;20221;-74
2021/07/11 01:02:54;;;;;;;6.17;5.70;;;;;;;16.35;98.75;100419.53;5070204;28;20197;-74
2021/07/11 01:05:23;;;;;;;6.37;5.87;;;;;;;16.14;97.71;100425.19;5070367;28;20240;-74
2021/07/11 01:08:13;;;;;;;6.23;5.73;;;;;;;16.05;98.24;100424.53;5070256;28;20171;-73
2021/07/11 01:10:50;;;;;;;6.40;5.90;;;;;;;16.01;99.02;100429.13;5070323;28;20175;-74
2021/07/11 01:13:20;;;;;;;5.97;5.50;;;;;;;15.84;99.00;100419.19;5070342;28;20166;-73
2021/07/11 01:15:48;;;;;;;6.30;5.83;;;;;;;15.74;99.93;100430.69;5070286;28;20476;-73
2021/07/11 01:18:17;;;;;;;6.50;6.00;;;;;;;15.63;100.00;100418.53;5068937;28;20540;-73
2021/07/11 01:20:57;;;;;;;6.07;5.47;;;;;;;15.53;100.00;100416.22;5070279;28;20292;-73
2021/07/11 01:23:59;;;;;;;6.20;5.70;;;;;;;15.41;100.00;100425.28;5068869;28;20178;-73
2021/07/11 01:26:26;;;;;;;5.87;5.47;;;;;;;15.29;100.00;100420.56;5059111;28;20210;-73
2021/07/11 01:28:53;;;;;;;6.43;5.93;;;;;;;15.30;100.00;100427.69;5070013;28;20599;-74
2021/07/11 01:31:24;;;;;;;7.13;6.43;;;;;;;15.26;100.00;100415.75;5072823;28;20167;-73
2021/07/11 01:33:50;;;;;;;6.60;6.00;;;;;;;15.23;100.00;100421.97;5073825;28;20174;-73
2021/07/11 01:36:17;;;;;;;6.37;5.87;;;;;;;15.21;100.00;100418.75;5073824;28;20167;-74
2021/07/11 01:38:45;;;;;;;5.73;5.30;;;;;;;15.22;100.00;100431.38;5073779;28;20203;-74
2021/07/11 01:41:12;;;;;;;7.60;7.00;;;;;;;15.21;100.00;100423.44;5072101;28;20198;-73
2021/07/11 01:43:38;;;;;;;7.07;6.47;;;;;;;15.27;100.00;100427.56;5073614;28;20174;-73
2021/07/11 01:46:06;;;;;;;6.10;5.60;;;;;;;15.36;100.00;100423.56;5073653;28;20198;-73
2021/07/11 01:48:32;;;;;;;7.20;6.63;;;;;;;15.39;100.00;100422.88;5073445;28;20545;-74
2021/07/11 01:50:58;;;;;;;6.50;6.07;;;;;;;15.43;100.00;100414.72;5073424;28;20170;-74
2021/07/11 01:53:26;;;;;;;6.73;6.23;;;;;;;15.46;100.00;100417.59;5072126;28;20185;-74
2021/07/11 01:55:52;;;;;;;6.30;5.80;;;;;;;15.51;100.00;100421.28;5073340;28;20177;-74
2021/07/11 01:58:19;;;;;;;6.03;5.53;;;;;;;15.54;100.00;100415.06;5073350;28;20163;-73
2021/07/11 02:00:45;;;;;;;6.87;5.53;;;;;;;15.53;100.00;100418.97;5073222;28;20170;-74
2021/07/11 02:03:21;;;;;;;6.63;6.13;;;;;;;15.48;100.00;100407.06;5073145;28;20194;-73
2021/07/11 02:05:49;;;;;;;8.07;6.17;;;;;;;15.45;100.00;100402.22;5073007;28;20920;-74
2021/07/11 02:08:15;;;;;;;6.20;5.70;;;;;;;15.43;100.00;100403.72;5073849;28;20194;-73
2021/07/11 02:10:44;;;;;;;5.93;5.47;;;;;;;15.39;100.00;100408.31;5073392;28;20610;-73
2021/07/11 02:13:20;;;;;;;6.53;5.87;;;;;;;15.36;100.00;100403.50;5073152;28;20170;-74
2021/07/11 02:15:48;;;;;;;6.50;6.00;;;;;;;15.26;100.00;100396.50;5071792;28;20170;-73
2021/07/11 02:18:18;;;;;;;6.53;6.03;;;;;;;15.24;100.00;100392.47;5073159;28;20171;-74
2021/07/11 02:20:47;;;;;;;6.50;6.00;;;;;;;15.21;100.00;100382.16;5072882;28;20262;-73
2021/07/11 02:23:14;;;;;;;6.00;5.53;;;;;;;15.22;100.00;100384.56;5072839;28;20609;-74
2021/07/11 02:25:40;;;;;;;5.80;5.37;;;;;;;15.20;100.00;100383.31;5073085;28;20256;-74
2021/07/11 02:28:07;;;;;;;6.57;6.13;;;;;;;15.11;100.00;100386.97;5072704;28;20182;-74
2021/07/11 02:30:52;;;;;;;6.40;5.93;;;;;;;15.12;100.00;100379.50;5072814;28;20658;-74
2021/07/11 02:33:26;;;;;;;7.53;5.87;;;;;;;15.04;100.00;100391.41;5072780;28;20249;-73
2021/07/11 02:35:53;;;;;;;5.93;5.47;;;;;;;14.88;100.00;100389.34;5072671;28;20209;-73
2021/07/11 02:38:20;;;;;;;7.67;6.53;;;;;;;14.84;100.00;100391.16;5072754;28;20185;-74
2021/07/11 02:40:46;;;;;;;6.70;6.20;;;;;;;14.86;100.00;100391.63;5072365;28;20178;-74
2021/07/11 02:43:15;;;;;;;6.80;6.20;;;;;;;14.94;100.00;100398.19;5071323;28;20636;-74
2021/07/11 02:45:43;;;;;;;6.23;5.73;;;;;;;15.00;100.00;100393.25;5072350;28;20229;-74
2021/07/11 02:48:10;;;;;;;7.67;7.07;;;;;;;15.02;100.00;100397.28;5072160;28;20175;-74
2021/07/11 02:50:37;;;;;;;7.50;6.90;;;;;;;15.00;100.00;100385.00;5071986;28;20232;-73
2021/07/11 02:53:03;;;;;;;7.27;6.77;;;;;;;15.03;100.00;100392.56;5071973;28;20181;-73
2021/07/11 02:55:33;;;;;;;7.47;6.70;;;;;;;15.01;100.00;100386.59;5072216;28;20170;-73
2021/07/11 02:58:04;;;;;;;6.70;6.13;;;;;;;14.97;100.00;100397.50;5072011;28;20586;-73
2021/07/11 03:00:30;;;;;;;6.40;5.83;;;;;;;15.00;100.00;100383.06;5071872;28;20664;-73
2021/07/11 03:02:56;;;;;;;6.90;6.30;;;;;;;15.04;100.00;100405.19;5071712;28;20257;-73
2021/07/11 03:05:23;;;;;;;6.27;5.87;;;;;;;14.95;100.00;100393.50;5071654;28;20205;-74
2021/07/11 03:07:50;;;;;;;6.50;5.90;;;;;;;14.84;100.00;100399.44;5071855;28;20220;-73
2021/07/11 03:10:15;;;;;;;7.33;6.77;;;;;;;14.81;100.00;100393.81;5071772;28;20653;-73
2021/07/11 03:12:42;;;;;;;7.20;6.60;;;;;;;14.81;100.00;100391.06;5071588;28;20199;-73
2021/07/11 03:15:08;;;;;;;7.67;7.03;;;;;;;14.82;100.00;100398.97;5071722;28;20688;-73
2021/07/11 03:17:34;;;;;;;7.03;6.53;;;;;;;14.77;100.00;100398.41;5071643;28;20174;-73
2021/07/11 03:20:01;;;;;;;7.87;7.13;;;;;;;14.72;100.00;100404.91;5071675;28;20178;-73
2021/07/11 03:22:35;;;;;;;7.87;6.83;;;;;;;14.75;100.00;100400.66;5071173;28;20170;-73
2021/07/11 03:25:03;;;;;;;8.60;7.97;;;;;;;14.77;100.00;100399.19;5071541;28;20211;-73
2021/07/11 03:27:30;;;;;;;7.03;6.43;;;;;;;14.73;100.00;100398.25;5071757;28;20174;-73
2021/07/11 03:30:10;;;;;;;7.63;7.03;;;;;;;14.67;100.00;100402.38;5071348;28;20175;-73
2021/07/11 03:32:48;;;;;;;6.93;6.33;;;;;;;14.60;100.00;100410.34;5071198;28;20178;-73
2021/07/11 03:35:15;;;;;;;13.37;7.17;;;;;;;14.61;100.00;100414.75;5071279;28;20634;-74
2021/07/11 03:37:45;;;;;;;7.33;6.80;;;;;;;14.60;100.00;100407.59;5071259;28;20225;-73
2021/07/11 03:40:16;;;;;;;7.80;7.10;;;;;;;14.57;100.00;100403.59;5071122;28;20206;-73
2021/07/11 03:42:42;;;;;;;6.67;6.10;;;;;;;14.53;100.00;100410.13;5071103;28;20174;-73
2021/07/11 03:45:10;;;;;;;7.60;7.00;;;;;;;14.55;100.00;100411.38;5071189;28;20198;-74
2021/07/11 03:47:51;;;;;;;7.97;7.37;;;;;;;14.56;100.00;100409.44;5070908;28;20626;-73
2021/07/11 03:50:21;;;;;;;7.03;6.43;;;;;;;14.57;100.00;100402.78;5071052;28;20537;-73
2021/07/11 03:53:07;;;;;;;7.57;7.07;;;;;;;14.54;100.00;100407.03;5070604;28;20265;-73
2021/07/11 03:55:35;;;;;;;8.57;7.47;;;;;;;14.56;100.00;100410.25;5070771;28;20167;-73
2021/07/11 03:58:03;;;;;;;8.07;7.43;;;;;;;14.60;100.00;100415.84;5070822;28;20174;-73
2021/07/11 04:00:30;;;;;;;8.37;7.67;;;;;;;14.67;100.00;100421.63;5066510;28;20270;-73
2021/07/11 04:02:57;;;;;;;11.03;8.13;;;;;;;14.75;100.00;100423.47;5070639;28;20235;-73
2021/07/11 04:05:26;;;;;;;8.93;8.23;;;;;;;14.82;100.00;100422.91;5069174;28;20301;-74
2021/07/11 04:07:53;;;;;;;7.53;7.00;;;;;;;14.89;100.00;100423.94;5070818;28;20182;-73
2021/07/11 04:10:23;;;;;;;8.10;7.40;;;;;;;14.96;100.00;100422.59;5070949;28;20196;-73
2021/07/11 04:12:48;;;;;;;8.10;7.30;;;;;;;14.99;100.00;100427.41;5070720;28;20170;-73
2021/07/11 04:15:14;;;;;;;7.13;6.43;;;;;;;15.06;100.00;100424.94;5070916;28;20407;-73
2021/07/11 04:17:48;;;;;;;8.27;7.67;;;;;;;15.19;100.00;100434.81;5070755;28;20212;-74
2021/07/11 04:20:15;;;;;;;9.07;8.17;;;;;;;15.29;100.00;100428.81;5069510;28;20541;-74
2021/07/11 04:22:41;;;;;;;8.40;7.77;;;;;;;15.36;100.00;100436.53;5070308;28;20922;-74
2021/07/11 04:25:10;;;;;;;8.93;8.23;;;;;;;15.42;100.00;100437.91;5070590;28;20247;-74
2021/07/11 04:27:37;;;;;;;8.87;8.17;;;;;;;15.50;100.00;100434.25;5070651;28;20609;-73
2021/07/11 04:30:03;;;;;;;9.23;8.53;;;;;;;15.54;100.00;100432.41;5070568;28;20660;-74
2021/07/11 04:32:28;;;;;;;8.83;8.13;;;;;;;15.63;100.00;100435.88;5070460;28;20182;-74
2021/07/11 04:34:54;;;;;;;8.70;8.10;;;;;;;15.70;100.00;100432.53;5070555;28;20695;-73
2021/07/11 04:37:19;;;;;;;8.87;8.17;;;;;;;15.74;100.00;100437.00;5070596;28;20603;-74
2021/07/11 04:39:44;;;;;;;9.43;8.73;;;;;;;15.76;100.00;100434.69;5070494;28;20170;-73
2021/07/11 04:42:11;;;;;;;9.97;9.17;;;;;;;15.85;100.00;100431.81;5070314;28;20622;-74
2021/07/11 04:44:40;;;;;;;10.73;9.83;;;;;;;15.95;100.00;100436.06;5070407;28;20224;-74
2021/07/11 04:47:06;;;;;;;9.73;9.03;;;;;;;16.02;100.00;100441.75;5070366;28;20613;-74
2021/07/11 04:49:31;;;;;;;10.10;9.20;;;;;;;16.09;100.00;100444.75;5070070;28;20190;-74
2021/07/11 04:51:57;;;;;;;10.57;9.77;;;;;;;16.13;100.00;100445.66;5070416;28;20177;-74
2021/07/11 04:54:23;;;;;;;9.27;8.53;;;;;;;16.18;100.00;100439.09;5070377;28;20541;-74
2021/07/11 04:56:48;;;;;;;9.90;8.83;;;;;;;16.24;100.00;100448.72;5070450;28;20540;-74
2021/07/11 04:59:13;;;;;;;8.73;8.10;;;;;;;16.28;100.00;100441.34;5067263;28;20178;-73
2021/07/11 05:01:39;;;;;;;10.07;9.27;;;;;;;16.35;100.00;100447.91;5069682;28;20198;-73
2021/07/11 05:04:04;;;;;;;10.07;9.30;;;;;;;16.41;100.00;100448.44;5069583;28;20196;-73
2021/07/11 05:06:30;;;;;;;11.07;10.17;;;;;;;16.28;100.00;100444.13;5073261;28;20210;-73
2021/07/11 05:08:55;;;;;;;12.00;11.03;;;;;;;16.16;100.00;100444.16;5074290;28;20186;-72
2021/07/11 05:11:20;;;;;;;12.50;11.40;;;;;;;16.23;100.00;100444.38;5074076;28;20166;-73
2021/07/11 05:13:46;;;;;;;11.30;10.40;;;;;;;16.21;100.00;100441.16;5073959;28;20174;-74
2021/07/11 05:16:11;;;;;;;12.03;10.93;;;;;;;16.17;100.00;100454.03;5073566;28;20228;-74
2021/07/11 05:18:36;;;;;;;10.67;9.77;;;;;;;16.32;100.00;100445.00;5073703;28;20641;-74
2021/07/11 05:21:02;;;;;;;11.90;10.70;;;;;;;16.47;100.00;100452.53;5073709;28;20213;-74
2021/07/11 05:23:29;;;;;;;10.13;9.43;;;;;;;16.55;100.00;100448.84;5073497;28;20179;-74
2021/07/11 05:25:54;;;;;;;10.27;9.47;;;;;;;16.60;100.00;100454.09;5073700;28;20210;-74
2021/07/11 05:28:20;;;;;;;9.40;8.70;;;;;;;16.60;100.00;100448.56;5074126;28;20186;-74
2021/07/11 05:30:45;;;;;;;9.27;8.57;;;;;;;16.64;100.00;100449.50;5074069;28;20641;-75
2021/07/11 05:33:11;;;;;;;17.80;10.43;;;;;;;16.66;100.00;100449.16;5072147;28;20182;-74
2021/07/11 05:35:37;;;;;;;9.03;8.20;;;;;;;16.71;100.00;100456.38;5061377;28;20187;-73
2021/07/11 05:38:02;;;;;;;10.33;9.53;;;;;;;16.79;100.00;100441.66;5080244;28;20183;-74
2021/07/11 05:40:28;;;;;;;15.00;8.63;;;;;;;16.85;100.00;100440.22;5079033;28;20171;-74
2021/07/11 05:42:53;;;;;;;10.03;9.07;;;;;;;16.85;100.00;100442.97;5075024;28;20668;-73
2021/07/11 05:45:19;;;;;;;9.87;9.10;;;;;;;16.67;100.00;100442.50;5073778;28;20210;-74
2021/07/11 05:47:46;;;;;;;10.03;9.30;;;;;;;16.74;100.00;100452.91;5073668;28;20183;-73
2021/07/11 05:50:13;;;;;;;10.03;9.23;;;;;;;16.76;100.00;100442.31;5073602;28;20171;-73
2021/07/11 05:52:39;;;;;;;10.90;10.00;;;;;;;16.44;100.00;100447.72;5073549;28;20171;-74
2021/07/11 05:55:05;;;;;;;10.37;9.47;;;;;;;16.48;100.00;100440.34;5073831;28;20175;-73
2021/07/11 05:57:31;;;;;;;11.63;10.67;;;;;;;16.54;100.00;100450.00;5073431;28;20182;-73
2021/07/11 05:59:57;;;;;;;11.47;10.53;;;;;;;16.60;100.00;100448.56;5073422;28;20175;-73
2021/07/11 06:02:22;;;;;;;10.67;9.57;;;;;;;16.66;100.00;100449.94;5073365;28;20190;-74
2021/07/11 06:04:48;;;;;;;11.63;10.70;;;;;;;16.78;100.00;100443.59;5073120;28;20268;-73
2021/07/11 06:07:13;;;;;;;11.77;10.67;;;;;;;16.94;100.00;100443.63;5073339;28;20197;-73
2021/07/11 06:09:39;;;;;;;11.30;10.40;;;;;;;17.05;100.00;100447.44;5073158;28;20576;-73
2021/07/11 06:12:04;;;;;;;10.50;9.60;;;;;;;17.04;100.00;100447.81;5072949;28;20191;-73
2021/07/11 06:14:30;;;;;;;11.87;10.97;;;;;;;16.73;100.00;100451.31;5073170;28;20206;-73
2021/07/11 06:16:55;;;;;;;11.30;10.40;;;;;;;16.53;100.00;100448.38;5071677;28;20209;-73
2021/07/11 06:19:21;;;;;;;12.17;11.17;;;;;;;16.45;100.00;100445.78;5073063;28;20579;-73
2021/07/11 06:21:47;;;;;;;11.97;10.73;;;;;;;16.43;100.00;100459.13;5072755;28;20178;-73
2021/07/11 06:24:13;;;;;;;11.13;10.23;;;;;;;16.58;100.00;100452.84;5073392;28;20232;-73
2021/07/11 06:26:38;;;;;;;10.93;10.03;;;;;;;16.78;100.00;100459.31;5072818;28;20603;-73
2021/07/11 06:29:03;;;;;;;12.33;11.33;;;;;;;16.59;100.00;100455.25;5071718;28;20194;-73
2021/07/11 06:31:29;;;;;;;10.80;10.00;;;;;;;16.60;100.00;100454.09;5072618;28;20261;-73
2021/07/11 06:33:54;;;;;;;11.90;10.73;;;;;;;16.81;100.00;100440.13;5071049;28;20183;-73
2021/07/11 06:36:20;;;;;;;12.23;10.63;;;;;;;17.05;100.00;100452.16;5072422;28;20182;-73
2021/07/11 06:38:45;;;;;;;11.07;10.27;;;;;;;17.18;100.00;100453.69;5072518;28;20174;-73
2021/07/11 06:41:11;;;;;;;10.90;10.07;;;;;;;17.37;100.00;100444.72;5072309;28;20170;-73
2021/07/11 06:43:36;;;;;;;11.20;10.30;;;;;;;17.48;100.00;100452.06;5072553;28;20630;-73
2021/07/11 06:46:02;;;;;;;11.23;10.20;;;;;;;17.65;100.00;100452.84;5072523;28;20291;-73
2021/07/11 06:48:27;;;;;;;10.70;9.80;;;;;;;17.75;98.90;100449.59;5072442;28;20301;-73
2021/07/11 06:50:53;;;;;;;12.07;10.97;;;;;;;17.62;98.49;100451.63;5072289;28;20177;-74
2021/07/11 06:53:18;;;;;;;11.67;10.67;;;;;;;17.78;98.61;100440.56;5072330;28;20171;-73
2021/07/11 06:55:44;;;;;;;11.07;10.17;;;;;;;17.92;98.48;100449.19;5072224;28;20342;-76
2021/07/11 06:58:09;;;;;;;12.03;11.13;;;;;;;17.84;95.98;100444.66;5072226;28;20629;-76
2021/07/11 07:00:34;;;;;;;12.50;11.43;;;;;;;17.83;96.60;100441.09;5072154;28;20186;-76
2021/07/11 07:03:00;;;;;;;12.27;11.27;;;;;;;17.94;96.24;100438.59;5071960;28;20190;-75
2021/07/11 07:05:25;;;;;;;11.87;10.87;;;;;;;18.02;95.97;100447.81;5072367;28;20199;-76
2021/07/11 07:07:51;;;;;;;11.73;10.77;;;;;;;18.12;95.07;100448.06;5071969;28;20262;-76
2021/07/11 07:10:17;;;;;;;11.27;10.47;;;;;;;18.30;95.38;100442.91;5072019;28;20171;-76
2021/07/11 07:12:44;;;;;;;19.00;10.47;;;;;;;18.51;95.97;100450.03;5071893;28;20190;-76
2021/07/11 07:15:11;;;;;;;11.03;10.13;;;;;;;18.66;95.72;100450.00;5071906;28;20178;-77
2021/07/11 07:17:36;;;;;;;10.97;10.07;;;;;;;18.81;94.30;100461.34;5071544;28;20170;-75
2021/07/11 07:20:04;;;;;;;10.40;9.60;;;;;;;18.94;93.34;100460.78;5071765;28;20188;-74
2021/07/11 07:22:29;;;;;;;12.10;10.90;;;;;;;19.06;93.07;100456.25;5071440;28;20203;-76
2021/07/11 07:24:55;;;;;;;10.67;9.77;;;;;;;19.16;92.65;100461.19;5071613;28;20201;-80
2021/07/11 07:27:20;;;;;;;11.83;10.83;;;;;;;19.24;91.65;100463.72;5071448;28;20198;-78
2021/07/11 07:29:45;;;;;;;12.50;11.40;;;;;;;19.36;92.20;100468.25;5071496;28;20179;-75
2021/07/11 07:32:11;;;;;;;10.70;9.90;;;;;;;19.41;91.42;100459.66;5071503;28;20224;-75
2021/07/11 07:34:36;;;;;;;12.80;11.70;;;;;;;19.48;90.63;100456.97;5071526;28;20673;-75
2021/07/11 07:37:02;;;;;;;12.30;11.10;;;;;;;19.53;89.80;100450.34;5071810;28;20174;-75
2021/07/11 07:39:28;;;;;;;14.97;12.10;;;;;;;19.63;87.79;100454.47;5071406;28;20259;-75
2021/07/11 07:41:54;;;;;;;15.00;11.67;;;;;;;19.74;88.48;100458.22;5071195;28;20177;-76
2021/07/11 07:44:20;;;;;;;12.87;11.70;;;;;;;19.65;86.42;100463.22;5071385;28;20182;-75
2021/07/11 07:46:45;;;;;;;12.63;11.63;;;;;;;19.70;86.68;100460.13;5071253;28;20215;-75
2021/07/11 07:49:10;;;;;;;12.97;11.80;;;;;;;19.71;86.04;100458.97;5071196;28;20557;-75
2021/07/11 07:51:36;;;;;;;13.33;12.13;;;;;;;19.78;85.32;100454.31;5070857;28;20634;-73
2021/07/11 07:54:01;;;;;;;13.03;11.87;;;;;;;19.76;84.78;100461.41;5071406;28;20221;-74
2021/07/11 07:56:27;;;;;;;13.90;12.70;;;;;;;19.81;85.00;100459.09;5069724;28;20185;-74
2021/07/11 07:58:52;;;;;;;13.00;11.90;;;;;;;19.96;84.57;100460.09;5070984;28;20235;-73
2021/07/11 08:01:17;;;;;;;12.17;11.17;;;;;;;19.96;82.48;100459.31;5070920;28;20182;-72
2021/07/11 08:03:43;;;;;;;11.50;10.37;;;;;;;20.15;84.64;100456.44;5070755;28;20519;-73
2021/07/11 08:06:09;;;;;;;13.80;12.33;;;;;;;20.18;82.13;100458.44;5071098;28;20325;-73
2021/07/11 08:08:34;;;;;;;11.47;10.57;;;;;;;20.28;83.52;100466.13;5070966;28;20546;-72
2021/07/11 08:11:00;;;;;;;12.33;11.33;;;;;;;20.08;81.26;100459.88;5070780;28;20261;-73
2021/07/11 08:13:25;;;;;;;12.20;11.07;;;;;;;20.18;82.29;100455.66;5070127;28;20186;-73
2021/07/11 08:15:51;;;;;;;12.47;11.47;;;;;;;20.36;82.96;100447.56;5069464;28;20170;-73
2021/07/11 08:18:16;;;;;;;12.67;10.80;;;;;;;20.47;83.22;100449.34;5069667;28;20186;-73
2021/07/11 08:20:42;;;;;;;11.30;10.43;;;;;;;20.62;83.81;100452.28;5069190;28;20178;-72
2021/07/11 08:23:07;;;;;;;11.17;10.13;;;;;;;20.61;81.84;100448.72;5069465;28;20269;-73
2021/07/11 08:25:32;;;;;;;11.73;10.70;;;;;;;20.72;82.84;100455.19;5069152;28;20213;-73
2021/07/11 08:27:58;;;;;;;11.03;10.03;;;;;;;20.88;82.56;100451.38;5069175;28;20270;-73
2021/07/11 08:30:23;;;;;;;10.53;9.53;;;;;;;21.01;80.99;100450.72;5069036;28;20240;-72
2021/07/11 08:32:49;;;;;;;13.83;10.17;;;;;;;21.05;81.00;100459.88;5068640;28;20186;-73
2021/07/11 08:35:15;;;;;;;10.90;9.90;;;;;;;21.25;81.96;100466.03;5068868;28;20261;-73
2021/07/11 08:37:41;;;;;;;10.37;9.57;;;;;;;21.41;81.66;100473.31;5069189;28;20265;-73
2021/07/11 08:40:09;;;;;;;10.73;9.93;;;;;;;21.33;81.00;100467.72;5068343;28;20253;-73
2021/07/11 08:42:35;;;;;;;10.03;9.23;;;;;;;21.53;81.40;100473.84;5069108;28;20185;-73
2021/07/11 08:45:00;;;;;;;9.93;9.10;;;;;;;21.70;79.28;100472.41;5067758;28;20194;-74
2021/07/11 08:47:26;;;;;;;9.97;9.17;;;;;;;21.79;80.98;100475.63;5068993;28;20188;-74
2021/07/11 08:49:51;;;;;;;11.03;10.13;;;;;;;21.82;79.26;100485.19;5069500;28;20429;-74
2021/07/11 08:52:17;;;;;;;10.50;9.60;;;;;;;22.04;81.27;100477.78;5068741;28;20176;-74
2021/07/11 08:54:42;;;;;;;10.77;9.87;;;;;;;22.10;77.92;100477.03;5066467;28;20180;-74
2021/07/11 08:57:10;;;;;;;10.97;10.17;;;;;;;22.10;76.15;100479.03;5069050;28;20175;-73
2021/07/11 08:59:36;;;;;;;10.90;10.10;;;;;;;21.84;76.84;100483.59;5069367;28;20178;-74
2021/07/11 09:02:02;;;;;;;12.03;11.13;;;;;;;21.30;77.72;100485.16;5068788;28;20184;-75
2021/07/11 09:04:40;;;;;;;11.17;10.27;;;;;;;21.33;77.61;100495.50;5068925;28;20303;-74
2021/07/11 09:07:06;;;;;;;15.63;10.80;;;;;;;21.35;77.20;100482.03;5068924;28;20210;-74
2021/07/11 09:09:33;;;;;;;11.53;10.53;;;;;;;21.18;77.53;100479.06;5069051;28;20608;-75
2021/07/11 09:12:03;;;;;;;10.47;9.67;;;;;;;21.19;78.97;100486.22;5069354;28;20523;-74
2021/07/11 09:14:32;;;;;;;11.40;10.50;;;;;;;21.08;78.47;100486.91;5070455;28;20171;-74
2021/07/11 09:16:59;;;;;;;11.50;10.53;;;;;;;20.97;79.66;100483.19;5070328;28;20326;-74
2021/07/11 09:19:26;;;;;;;11.57;10.57;;;;;;;21.32;81.14;100482.81;5068790;28;20183;-73
2021/07/11 09:22:09;;;;;;;10.80;10.00;;;;;;;21.48;78.67;100476.97;5068608;28;20536;-73
2021/07/11 09:24:38;;;;;;;11.47;10.40;;;;;;;21.79;77.50;100483.97;5069929;28;20195;-73
2021/07/11 09:27:10;;;;;;;12.10;11.17;;;;;;;22.03;75.72;100484.53;5070136;28;20175;-73
2021/07/11 09:29:37;;;;;;;11.60;10.20;;;;;;;22.25;74.29;100480.69;5066650;28;20253;-73
2021/07/11 09:32:04;;;;;;;13.07;11.87;;;;;;;22.23;71.93;100483.09;5069573;28;20659;-73
2021/07/11 09:34:31;;;;;;;12.87;11.67;;;;;;;22.13;72.80;100479.06;5069881;28;20183;-74
2021/07/11 09:37:16;;;;;;;12.50;11.50;;;;;;;21.98;73.86;100483.69;5068768;28;20176;-73
2021/07/11 09:39:59;;;;;;;11.67;10.77;;;;;;;22.17;71.98;100481.88;5070012;28;20172;-73
2021/07/11 09:42:32;;;;;;;12.07;10.97;;;;;;;22.32;71.81;100485.53;5069930;28;20186;-73
2021/07/11 09:44:59;;;;;;;13.20;12.20;;;;;;;22.42;71.03;100480.00;5068528;28;20214;-73
2021/07/11 09:47:26;;;;;;;11.53;10.53;;;;;;;22.37;71.46;100474.00;5069778;28;20179;-73
2021/07/11 09:50:23;;;;;;;14.10;11.03;;;;;;;22.24;70.11;100479.91;5059285;28;20261;-72
2021/07/11 09:52:54;;;;;;;12.23;11.23;;;;;;;22.14;71.35;100475.09;5061238;28;20187;-72
2021/07/11 09:55:21;;;;;;;13.03;12.03;;;;;;;21.88;71.03;100475.28;5071472;28;20190;-73
2021/07/11 09:57:48;;;;;;;11.60;10.60;;;;;;;21.82;72.32;100435.91;5067796;28;20270;-72
2021/07/11 10:00:24;;;;;;;11.17;10.27;;;;;;;22.19;57.57;100488.63;5066514;28;20188;-73
2021/07/11 10:03:11;;;;;;;10.83;9.93;;;;;;;22.42;71.05;100488.38;5055231;28;20186;-72
2021/07/11 10:05:39;;;;;;;10.37;9.57;;;;;;;22.49;70.15;101605.16;5072434;28;20228;-73
2021/07/11 10:08:06;;;;;;;11.30;10.30;;;;;;;22.55;69.23;100945.53;5072858;28;20180;-72
2021/07/11 10:10:33;;;;;;;9.97;9.07;;;;;;;22.50;69.01;101111.00;5072576;28;20182;-72
2021/07/11 10:13:01;;;;;;;10.60;9.83;;;;;;;22.66;69.60;101135.09;5072634;28;20212;-73
2021/07/11 10:15:29;;;;;;;11.10;10.20;;;;;;;22.86;68.83;100782.72;5072791;28;20278;-73
2021/07/11 10:18:00;;;;;;;11.83;10.83;;;;;;;22.85;68.41;100956.63;5072775;28;20171;-73
2021/07/11 10:20:37;;;;;;;11.00;10.20;;;;;;;22.77;66.39;100489.69;5072771;28;20192;-73
2021/07/11 10:23:04;;;;;;;9.43;8.63;;;;;;;22.86;64.30;100498.50;5072549;28;20503;-72
2021/07/11 10:25:31;;;;;;;9.33;8.63;;;;;;;23.02;65.15;100490.59;5072597;28;20241;-72
2021/07/11 10:28:25;;;;;;;9.80;9.07;;;;;;;23.11;63.09;100487.41;5072469;28;20525;-73
2021/07/11 10:30:51;;;;;;;9.10;8.50;;;;;;;23.22;65.96;100487.44;5069211;28;20548;-81
2021/07/11 10:33:18;;;;;;;7.97;7.37;;;;;;;23.21;63.75;100483.03;5071859;28;20216;-77
2021/07/11 10:36:00;;;;;;;6.43;5.93;;;;;;;23.54;64.83;100491.03;5072173;28;20266;-75
2021/07/11 10:38:34;;;;;;;6.80;6.40;;;;;;;23.53;63.61;100475.50;5072308;28;20173;-77
2021/07/11 10:41:18;;;;;;;7.27;6.77;;;;;;;23.57;63.41;100473.50;5071990;28;20185;-76
2021/07/11 10:43:46;;;;;;;6.53;5.93;;;;;;;23.39;63.47;100478.28;5072331;28;20174;-77
2021/07/11 10:46:12;;;;;;;7.77;7.17;;;;;;;23.27;65.98;100478.66;5072017;28;20808;-76
2021/07/11 10:48:37;;;;;;;7.23;6.70;;;;;;;23.38;67.60;100466.31;5072221;28;20213;-77
2021/07/11 10:51:04;;;;;;;7.60;6.90;;;;;;;23.54;66.77;100479.06;5071985;28;20198;-76
2021/07/11 10:53:35;;;;;;;7.63;7.07;;;;;;;23.65;67.69;100486.28;5072250;28;20179;-77
2021/07/11 10:56:01;;;;;;;7.57;6.97;;;;;;;23.64;65.58;100479.09;5072159;28;20196;-74
2021/07/11 10:58:37;;;;;;;6.80;6.30;;;;;;;23.89;67.06;100481.88;5072032;28;20179;-75
2021/07/11 11:01:14;;;;;;;7.60;7.00;;;;;;;23.54;67.21;100477.09;5071944;28;20162;-74
2021/07/11 11:03:46;;;;;;;7.20;6.70;;;;;;;23.56;66.48;100483.06;5076386;28;20163;-76
2021/07/11 11:06:14;;;;;;;7.47;6.97;;;;;;;23.94;66.58;100480.66;5078079;28;20202;-75
2021/07/11 11:08:43;;;;;;;7.07;6.43;;;;;;;24.13;65.62;100479.41;5073353;28;20305;-76
2021/07/11 11:11:09;;;;;;;6.07;5.67;;;;;;;23.92;63.64;100474.69;5072182;28;20190;-75
2021/07/11 11:13:34;;;;;;;7.03;6.53;;;;;;;23.69;63.64;100477.91;5072052;28;20210;-75
2021/07/11 11:16:12;;;;;;;7.13;6.70;;;;;;;23.67;64.12;100466.34;5072037;28;20175;-76
2021/07/11 11:18:39;;;;;;;6.27;5.83;;;;;;;24.04;66.35;100463.91;5071882;28;20311;-75